createdAt,value
2017-08-15T02:42:38.816Z,69.92
2017-08-15T02:45:06.505Z,69.88
2017-08-15T02:47:34.370Z,69.99
2017-08-15T02:50:02.136Z,70.04
2017-08-15T03:49:37.406Z,69.97
2017-08-15T04:14:30.926Z,71.32
2017-08-15T04:16:58.523Z,71.35
2017-08-15T04:19:26.112Z,70.92
2017-08-15T04:21:53.772Z,70.73
2017-08-15T04:24:21.352Z,70.87
2017-08-15T04:26:49.035Z,71.02
2017-08-15T05:03:03.544Z,72.24
2017-08-15T05:05:31.172Z,72.19
2017-08-15T05:07:58.936Z,72.03
2017-08-15T05:28:10.978Z,71.86
2017-08-15T05:39:32.980Z,71.12
2017-08-15T06:14:05.432Z,44.11
2017-08-15T06:16:32.978Z,43.62
2017-08-15T06:19:00.521Z,43.00
2017-08-15T06:35:57.649Z,47.57
2017-08-15T06:44:09.693Z,56.70
2017-08-15T06:46:37.159Z,58.18
2017-08-15T06:49:05.383Z,59.30
2017-08-15T06:51:32.864Z,59.14
2017-08-15T06:56:59.398Z,59.44
2017-08-15T06:59:26.848Z,59.89
2017-08-15T07:01:54.420Z,60.76
2017-08-15T07:04:21.939Z,59.32
2017-08-15T07:06:49.471Z,59.78
2017-08-15T07:09:16.960Z,59.54
2017-08-15T07:11:44.420Z,61.16
2017-08-15T07:14:11.927Z,61.37
2017-08-15T07:16:39.416Z,61.11
2017-08-15T07:19:07.660Z,61.21
2017-08-15T07:21:35.107Z,62.10
2017-08-15T07:24:03.994Z,61.21
2017-08-15T07:26:33.176Z,61.03
2017-08-15T07:29:02.279Z,61.89
2017-08-15T07:31:31.572Z,62.23
2017-08-15T07:34:00.290Z,61.85
2017-08-15T07:36:28.753Z,61.80
2017-08-15T07:38:57.838Z,62.00
2017-08-15T07:41:26.857Z,62.00
2017-08-15T07:43:56.573Z,61.08
2017-08-15T07:46:25.903Z,59.20
2017-08-15T07:48:55.727Z,55.58
2017-08-15T07:51:24.438Z,55.16
2017-08-15T07:53:55.166Z,54.11
2017-08-15T07:56:24.278Z,55.04
2017-08-15T07:58:53.126Z,55.41
2017-08-15T08:01:21.717Z,54.94
2017-08-15T08:03:50.854Z,54.46
2017-08-15T08:06:19.936Z,52.76
2017-08-15T08:08:49.409Z,51.70
2017-08-15T08:11:17.958Z,51.41
2017-08-15T08:13:46.742Z,51.59
2017-08-15T08:16:15.817Z,51.71
2017-08-15T08:18:45.031Z,50.99
2017-08-15T08:21:13.286Z,51.09
2017-08-15T08:23:42.391Z,51.78
2017-08-15T08:26:11.192Z,51.14
2017-08-15T08:28:40.311Z,50.85
2017-08-15T08:31:08.845Z,50.64
2017-08-15T08:33:37.731Z,50.21
2017-08-15T08:36:06.898Z,49.43
2017-08-15T08:38:35.696Z,49.68
2017-08-15T08:41:03.168Z,49.74
2017-08-15T08:43:32.873Z,50.47
2017-08-15T08:46:01.776Z,47.97
2017-08-15T08:48:30.994Z,48.21
2017-08-15T08:50:59.456Z,47.44
2017-08-15T08:53:27.492Z,47.78
2017-08-15T08:55:55.310Z,48.49
2017-08-15T08:58:23.446Z,47.52
2017-08-15T09:00:52.389Z,46.92
2017-08-15T09:03:21.403Z,46.50
2017-08-15T09:05:50.576Z,45.75
2017-08-15T09:08:19.098Z,45.72
2017-08-15T09:10:47.819Z,43.84
2017-08-15T09:13:18.252Z,45.02
2017-08-15T09:15:47.448Z,45.76
2017-08-15T09:18:16.701Z,42.79
2017-08-15T09:20:46.923Z,43.19
2017-08-15T09:23:15.649Z,41.36
2017-08-15T09:25:43.256Z,42.21
2017-08-15T09:28:11.844Z,42.93
2017-08-15T09:30:41.367Z,43.24
2017-08-15T09:33:09.016Z,42.56
2017-08-15T09:35:38.197Z,42.12
2017-08-15T09:38:06.972Z,41.83
2017-08-15T09:40:36.586Z,43.22
2017-08-15T09:43:05.134Z,42.67
2017-08-15T09:45:34.179Z,43.30
2017-08-15T09:48:03.124Z,42.35
2017-08-15T09:50:32.388Z,42.04
2017-08-15T09:53:01.431Z,41.24
2017-08-15T09:55:30.536Z,41.41
2017-08-15T09:58:14.269Z,41.58
2017-08-15T10:00:42.561Z,40.56
2017-08-15T10:03:11.255Z,40.87
2017-08-15T10:05:39.247Z,40.15
2017-08-15T10:08:08.205Z,39.92
2017-08-15T10:10:37.144Z,40.61
2017-08-15T10:13:06.075Z,40.39
2017-08-15T10:15:35.401Z,39.81
2017-08-15T10:18:04.035Z,39.75
2017-08-15T10:20:32.881Z,39.42
2017-08-15T10:23:01.635Z,39.37
2017-08-15T10:25:30.932Z,38.11
2017-08-15T10:27:59.955Z,38.41
2017-08-15T10:30:28.346Z,38.17
2017-08-15T10:32:57.002Z,38.06
2017-08-15T10:35:25.997Z,37.66
2017-08-15T10:37:55.270Z,36.67
2017-08-15T10:40:24.142Z,37.91
2017-08-15T10:42:53.153Z,38.28
2017-08-15T10:45:22.189Z,37.85
2017-08-15T10:47:52.319Z,38.00
2017-08-15T10:50:21.552Z,36.53
2017-08-15T10:52:50.889Z,37.95
2017-08-15T10:55:20.049Z,38.09
2017-08-15T10:57:48.636Z,37.04
2017-08-15T11:00:17.848Z,38.83
2017-08-15T11:02:45.846Z,37.26
2017-08-15T11:05:14.569Z,36.25
2017-08-15T11:07:43.608Z,36.88
2017-08-15T11:10:11.943Z,37.33
2017-08-15T11:12:40.861Z,37.60
2017-08-15T11:15:09.607Z,36.09
2017-08-15T11:17:38.227Z,36.04
2017-08-15T11:20:06.473Z,35.46
2017-08-15T11:22:35.023Z,36.06
2017-08-15T11:25:04.325Z,35.96
2017-08-15T11:27:33.473Z,34.19
2017-08-15T11:32:37.405Z,34.00
2017-08-15T11:35:05.311Z,33.98
2017-08-15T11:37:34.086Z,35.66
2017-08-15T11:40:03.736Z,36.42
2017-08-15T11:42:32.493Z,33.88
2017-08-15T11:45:00.668Z,32.51
2017-08-15T11:47:29.380Z,32.28
2017-08-15T11:49:58.265Z,31.07
2017-08-15T11:52:27.433Z,32.49
2017-08-15T11:54:55.269Z,32.54
2017-08-15T11:57:23.147Z,32.20
2017-08-15T11:59:51.989Z,31.78
2017-08-15T12:02:20.691Z,32.31
2017-08-15T12:04:49.441Z,31.83
2017-08-15T12:07:17.574Z,31.72
2017-08-15T12:09:46.648Z,32.10
2017-08-15T12:12:15.792Z,31.57
2017-08-15T12:14:44.295Z,31.95
2017-08-15T12:17:13.514Z,31.58
2017-08-15T12:19:42.479Z,31.68
2017-08-15T12:22:11.527Z,32.22
2017-08-15T12:24:40.770Z,30.15
2017-08-15T12:27:09.682Z,30.41
2017-08-15T12:29:39.207Z,30.36
2017-08-15T12:32:08.323Z,30.29
2017-08-15T12:34:37.684Z,30.83
2017-08-15T12:37:06.727Z,31.00
2017-08-15T12:39:36.048Z,31.67
2017-08-15T12:42:05.111Z,29.36
2017-08-15T12:44:34.072Z,26.47
2017-08-15T12:47:03.147Z,26.88
2017-08-15T12:49:32.113Z,26.16
2017-08-15T12:52:01.322Z,23.99
2017-08-15T12:54:30.291Z,24.71
2017-08-15T12:56:59.523Z,26.09
2017-08-15T12:59:28.477Z,27.19
2017-08-15T13:01:58.055Z,28.77
2017-08-15T13:04:27.444Z,30.06
2017-08-15T13:06:56.461Z,31.50
2017-08-15T13:09:25.827Z,30.08
2017-08-15T13:11:54.842Z,30.49
2017-08-15T13:14:23.996Z,31.26
2017-08-15T13:16:53.213Z,32.37
2017-08-15T13:19:22.158Z,35.19
2017-08-15T13:21:51.081Z,35.98
2017-08-15T13:24:20.328Z,37.96
2017-08-15T13:26:49.386Z,37.97
2017-08-15T13:29:18.992Z,34.45
2017-08-15T13:31:47.970Z,33.32
2017-08-15T13:34:17.078Z,31.22
2017-08-15T13:36:46.021Z,31.83
2017-08-15T13:39:15.082Z,31.28
2017-08-15T13:41:44.337Z,33.08
2017-08-15T13:44:13.553Z,32.49
2017-08-15T13:46:42.755Z,31.51
2017-08-15T13:49:11.713Z,31.17
2017-08-15T13:51:40.968Z,30.94
2017-08-15T13:54:09.952Z,30.96
2017-08-15T13:56:38.978Z,30.94
2017-08-15T13:59:08.794Z,32.59
2017-08-15T14:01:38.668Z,33.46
2017-08-15T14:04:08.834Z,33.91
2017-08-15T14:06:38.074Z,33.46
2017-08-15T14:09:07.612Z,33.64
2017-08-15T14:11:36.637Z,33.82
2017-08-15T14:14:06.642Z,33.98
2017-08-15T14:16:35.409Z,33.74
2017-08-15T14:19:04.675Z,33.48
2017-08-15T14:21:33.617Z,32.51
2017-08-15T14:24:03.425Z,33.11
2017-08-15T14:26:32.403Z,33.86
2017-08-15T14:29:01.842Z,33.48
2017-08-15T14:31:30.946Z,32.27
2017-08-15T14:33:59.672Z,33.17
2017-08-15T14:36:28.470Z,32.01
2017-08-15T14:38:57.692Z,31.52
2017-08-15T14:41:26.509Z,32.90
2017-08-15T14:43:55.624Z,31.36
2017-08-15T14:46:24.722Z,32.39
2017-08-15T14:48:53.696Z,32.86
2017-08-15T14:51:22.914Z,34.18
2017-08-15T14:53:51.901Z,32.58
2017-08-15T14:56:21.002Z,33.95
2017-08-15T14:58:49.448Z,32.79
2017-08-15T15:01:18.414Z,34.18
2017-08-15T15:03:47.520Z,34.83
2017-08-15T15:06:16.323Z,36.91
2017-08-15T15:08:45.500Z,35.86
2017-08-15T15:11:14.440Z,36.89
2017-08-15T15:13:43.496Z,36.57
2017-08-15T15:16:12.498Z,36.67
2017-08-15T15:18:41.292Z,36.36
2017-08-15T15:21:09.877Z,37.55
2017-08-15T15:23:38.863Z,38.15
2017-08-15T15:26:07.514Z,37.88
2017-08-15T15:28:36.502Z,37.75
2017-08-15T15:31:05.707Z,37.50
2017-08-15T15:33:34.587Z,38.93
2017-08-15T15:36:03.446Z,38.15
2017-08-15T15:38:32.363Z,38.52
2017-08-15T15:41:01.334Z,40.07
2017-08-15T15:43:30.099Z,41.16
2017-08-15T15:45:59.167Z,41.71
2017-08-15T15:48:28.070Z,42.58
2017-08-15T15:50:56.994Z,42.47
2017-08-15T15:53:25.582Z,42.77
2017-08-15T15:55:55.081Z,43.52
2017-08-15T15:58:24.048Z,44.00
2017-08-15T16:00:52.970Z,44.16
2017-08-15T16:03:22.216Z,45.75
2017-08-15T16:05:51.084Z,46.28
2017-08-15T16:08:20.125Z,46.37
2017-08-15T16:10:49.324Z,46.19
2017-08-15T16:13:18.416Z,46.38
2017-08-15T16:15:47.569Z,46.25
2017-08-15T16:35:25.515Z,43.40
2017-08-15T16:37:59.261Z,42.58
2017-08-15T16:40:27.565Z,43.62
2017-08-15T16:42:57.494Z,43.86
2017-08-15T16:45:41.050Z,42.87
2017-08-15T16:48:22.699Z,43.24
2017-08-15T16:51:03.177Z,43.43
2017-08-15T16:56:24.595Z,50.92
2017-08-15T16:59:02.293Z,49.59
2017-08-15T17:01:39.581Z,53.23
2017-08-15T17:04:18.876Z,53.25
2017-08-15T17:07:02.605Z,54.34
2017-08-15T17:09:38.521Z,55.39
2017-08-15T17:12:08.602Z,56.24
2017-08-15T17:14:58.116Z,56.21
2017-08-15T17:37:33.359Z,57.78
2017-08-15T17:40:02.107Z,57.76
2017-08-15T17:42:31.471Z,59.39
2017-08-15T17:44:59.362Z,64.51
2017-08-15T17:47:27.442Z,63.67
2017-08-15T17:49:56.900Z,62.86
2017-08-15T18:00:55.234Z,62.35
2017-08-15T18:03:25.545Z,62.17
2017-08-15T18:05:53.587Z,61.65
2017-08-15T18:08:23.178Z,62.43
2017-08-15T18:11:06.505Z,62.51
2017-08-15T18:13:48.777Z,62.75
2017-08-15T18:16:34.723Z,64.00
2017-08-15T18:19:13.163Z,62.46
2017-08-15T18:21:42.397Z,61.23
2017-08-15T18:24:12.026Z,62.41
2017-08-15T18:26:47.643Z,62.68
2017-08-15T18:32:01.869Z,66.66
2017-08-15T18:34:35.447Z,64.89
2017-08-15T18:37:29.468Z,64.45
2017-08-15T18:40:11.273Z,65.80
2017-08-15T18:45:32.667Z,66.86
2017-08-15T18:48:02.613Z,66.74
2017-08-15T18:53:29.567Z,67.72
2017-08-15T18:56:14.639Z,67.98
2017-08-15T18:59:01.815Z,67.85
2017-08-15T19:07:16.130Z,68.48
2017-08-15T19:12:26.261Z,65.07
2017-08-15T19:14:58.257Z,65.56
2017-08-15T19:20:22.687Z,66.16
2017-08-15T19:22:53.554Z,67.67
2017-08-15T19:25:25.522Z,67.47
2017-08-15T19:27:55.525Z,67.36
2017-08-15T19:36:07.033Z,68.12
2017-08-15T19:38:38.927Z,68.70
2017-08-15T19:41:14.845Z,67.81
2017-08-15T19:43:43.894Z,68.78
2017-08-15T19:46:14.660Z,68.97
2017-08-15T19:48:44.199Z,67.92
2017-08-15T19:51:15.900Z,68.82
2017-08-15T19:53:50.467Z,68.25
2017-08-15T19:56:20.691Z,68.01
2017-08-15T19:58:50.170Z,68.68
2017-08-15T20:01:19.531Z,69.55
2017-08-15T20:03:49.218Z,69.08
2017-08-15T20:06:18.529Z,69.32
2017-08-15T20:08:47.897Z,69.01
2017-08-15T20:11:17.386Z,68.82
2017-08-15T20:13:46.794Z,68.93
2017-08-15T20:16:15.510Z,69.16
2017-08-15T20:18:44.743Z,68.80
2017-08-15T20:21:13.623Z,68.77
2017-08-15T20:23:43.317Z,68.93
2017-08-15T20:26:13.803Z,68.73
2017-08-15T20:28:43.509Z,68.46
2017-08-15T20:31:14.687Z,68.95
2017-08-15T20:33:44.780Z,68.87
2017-08-15T20:36:13.862Z,69.30
2017-08-15T20:38:46.629Z,68.42
2017-08-15T20:41:16.298Z,68.39
2017-08-15T20:43:45.294Z,68.55
2017-08-15T20:46:14.239Z,70.03
2017-08-15T20:48:45.726Z,70.24
2017-08-15T20:51:15.589Z,69.87
2017-08-15T20:53:45.128Z,69.45
2017-08-15T20:56:14.395Z,69.45
2017-08-15T20:58:44.012Z,69.00
2017-08-15T21:01:13.263Z,69.42
2017-08-15T21:03:42.996Z,69.09
2017-08-15T21:06:11.048Z,69.23
2017-08-15T21:08:40.231Z,69.47
2017-08-15T21:11:09.147Z,69.42
2017-08-15T21:13:38.063Z,70.53
2017-08-15T21:16:07.686Z,70.35
2017-08-15T21:18:37.353Z,70.34
2017-08-15T21:21:07.279Z,70.88
2017-08-15T21:23:36.525Z,71.16
2017-08-15T21:26:05.752Z,71.20
2017-08-15T21:28:35.121Z,71.32
2017-08-15T21:31:04.595Z,71.31
2017-08-15T21:33:33.954Z,70.99
2017-08-15T21:36:03.386Z,71.49
2017-08-15T21:38:32.479Z,71.17
2017-08-15T21:41:02.544Z,70.75
2017-08-15T21:43:31.816Z,70.64
2017-08-15T21:46:01.117Z,71.07
2017-08-15T21:48:31.102Z,70.82
2017-08-15T21:51:04.756Z,71.64
2017-08-15T21:53:44.233Z,71.77
2017-08-15T21:56:15.273Z,71.79
2017-08-15T21:58:49.637Z,70.87
2017-08-15T22:01:33.098Z,69.96
2017-08-15T22:04:05.882Z,69.29
2017-08-15T22:06:35.115Z,69.86
2017-08-15T22:09:04.770Z,69.90
2017-08-15T22:11:34.366Z,69.16
2017-08-15T22:14:03.629Z,70.07
2017-08-15T22:16:33.359Z,70.07
2017-08-15T22:19:04.583Z,69.70
2017-08-15T22:21:34.507Z,70.02
2017-08-15T22:24:04.465Z,70.31
2017-08-15T22:26:33.809Z,70.26
2017-08-15T22:29:05.084Z,70.43
2017-08-15T22:31:34.965Z,69.84
2017-08-15T22:34:04.576Z,69.85
2017-08-15T22:36:33.667Z,70.79
2017-08-15T22:39:03.264Z,70.69
2017-08-15T22:41:33.604Z,69.64
2017-08-15T22:44:03.117Z,69.72
2017-08-15T22:46:32.236Z,70.34
2017-08-15T22:49:01.974Z,72.07
2017-08-15T22:51:31.261Z,71.40
2017-08-15T22:54:00.791Z,71.11
2017-08-15T22:56:29.895Z,70.96
2017-08-15T22:58:59.319Z,71.10
2017-08-15T23:01:28.807Z,71.05
2017-08-15T23:03:58.253Z,71.02
2017-08-15T23:06:27.872Z,71.11
2017-08-15T23:08:57.077Z,72.14
2017-08-15T23:11:29.700Z,72.80
2017-08-15T23:14:01.455Z,73.49
2017-08-15T23:16:35.550Z,73.94
2017-08-15T23:19:04.685Z,74.60
2017-08-15T23:21:33.814Z,74.52
2017-08-15T23:24:04.889Z,75.99
2017-08-15T23:27:14.139Z,76.62
2017-08-15T23:29:52.577Z,77.18
2017-08-15T23:38:12.588Z,78.25
2017-08-15T23:43:35.038Z,78.33
2017-08-15T23:46:23.302Z,79.77
2017-08-15T23:48:55.393Z,80.54
2017-08-15T23:51:49.268Z,81.60
2017-08-15T23:54:51.634Z,79.52
